sensor_id;sensor_type;location;lat;lon;timestamp;pressure;altitude;pressure_sealevel;temperature;humidity
7105;BME280;3594;42.152;24.714;2022-12-18T00:01:51;-24052.78;;;8.44;nan
7105;BME280;3594;42.152;24.714;2022-12-18T00:04:22;-24058.28;;;8.64;nan
7105;BME280;3594;42.152;24.714;2022-12-18T00:06:48;-24056.44;;;8.57;nan
7105;BME280;3594;42.152;24.714;2022-12-18T00:09:14;-24046.69;;;8.22;nan
7105;BME280;3594;42.152;24.714;2022-12-18T00:11:39;-24056.03;;;8.56;nan
7105;BME280;3594;42.152;24.714;2022-12-18T00:14:05;-24060.41;;;8.71;nan
7105;BME280;3594;42.152;24.714;2022-12-18T00:16:30;-24056.03;;;8.56;nan
7105;BME280;3594;42.152;24.714;2022-12-18T00:18:59;-24058.84;;;8.66;nan
7105;BME280;3594;42.152;24.714;2022-12-18T00:21:25;-24056.03;;;8.56;nan
7105;BME280;3594;42.152;24.714;2022-12-18T00:23:51;-24055.88;;;8.55;nan
7105;BME280;3594;42.152;24.714;2022-12-18T00:26:20;-24048.81;;;8.30;nan
7105;BME280;3594;42.152;24.714;2022-12-18T00:28:46;-24049.38;;;8.32;nan
7105;BME280;3594;42.152;24.714;2022-12-18T00:31:14;-24055.59;;;8.54;nan
7105;BME280;3594;42.152;24.714;2022-12-18T00:33:40;-24058.16;;;8.63;nan
7105;BME280;3594;42.152;24.714;2022-12-18T00:36:09;-24057.16;;;8.60;nan
7105;BME280;3594;42.152;24.714;2022-12-18T00:38:35;-24053.63;;;8.47;nan
7105;BME280;3594;42.152;24.714;2022-12-18T00:41:06;-24056.44;;;8.57;nan
7105;BME280;3594;42.152;24.714;2022-12-18T00:43:33;-24059.00;;;8.66;nan
7105;BME280;3594;42.152;24.714;2022-12-18T00:45:58;-24036.06;;;7.84;nan
7105;BME280;3594;42.152;24.714;2022-12-18T00:48:24;-24055.75;;;8.55;nan
7105;BME280;3594;42.152;24.714;2022-12-18T00:50:50;-24051.22;;;8.38;nan
7105;BME280;3594;42.152;24.714;2022-12-18T00:53:15;-24059.28;;;8.67;nan
7105;BME280;3594;42.152;24.714;2022-12-18T00:55:42;-24054.88;;;8.52;nan
7105;BME280;3594;42.152;24.714;2022-12-18T00:58:08;-24054.19;;;8.49;nan
7105;BME280;3594;42.152;24.714;2022-12-18T01:00:35;-24058.44;;;8.64;nan
7105;BME280;3594;42.152;24.714;2022-12-18T01:03:00;-24045.53;;;8.18;nan
7105;BME280;3594;42.152;24.714;2022-12-18T01:05:26;-24056.72;;;8.58;nan
7105;BME280;3594;42.152;24.714;2022-12-18T01:07:51;-24055.88;;;8.55;nan
7105;BME280;3594;42.152;24.714;2022-12-18T01:10:17;-24057.44;;;8.61;nan
7105;BME280;3594;42.152;24.714;2022-12-18T01:12:42;-24054.75;;;8.51;nan
7105;BME280;3594;42.152;24.714;2022-12-18T01:15:09;-24049.94;;;8.34;nan
7105;BME280;3594;42.152;24.714;2022-12-18T01:17:35;-24053.75;;;8.48;nan
7105;BME280;3594;42.152;24.714;2022-12-18T01:20:01;-24061.81;;;8.76;nan
7105;BME280;3594;42.152;24.714;2022-12-18T01:22:26;-24060.97;;;8.73;nan
7105;BME280;3594;42.152;24.714;2022-12-18T01:24:52;-24049.66;;;8.33;nan
7105;BME280;3594;42.152;24.714;2022-12-18T01:27:17;-24061.25;;;8.74;nan
7105;BME280;3594;42.152;24.714;2022-12-18T01:29:42;-24058.44;;;8.64;nan
7105;BME280;3594;42.152;24.714;2022-12-18T01:32:08;-24055.59;;;8.54;nan
7105;BME280;3594;42.152;24.714;2022-12-18T01:34:35;-24028.25;;;7.57;nan
7105;BME280;3594;42.152;24.714;2022-12-18T01:37:05;-24057.28;;;8.60;nan
7105;BME280;3594;42.152;24.714;2022-12-18T01:39:31;-24061.13;;;8.74;nan
7105;BME280;3594;42.152;24.714;2022-12-18T01:42:02;-24059.84;;;8.69;nan
7105;BME280;3594;42.152;24.714;2022-12-18T01:45:02;-24062.94;;;8.80;nan
7105;BME280;3594;42.152;24.714;2022-12-18T01:50:18;-24064.09;;;8.84;nan
7105;BME280;3594;42.152;24.714;2022-12-18T01:53:02;-24063.66;;;8.83;nan
7105;BME280;3594;42.152;24.714;2022-12-18T01:55:31;-24062.09;;;8.77;nan
7105;BME280;3594;42.152;24.714;2022-12-18T01:57:59;-24064.09;;;8.84;nan
7105;BME280;3594;42.152;24.714;2022-12-18T02:00:25;-24060.84;;;8.73;nan
7105;BME280;3594;42.152;24.714;2022-12-18T02:02:51;-24067.75;;;8.98;nan
7105;BME280;3594;42.152;24.714;2022-12-18T02:08:37;-24069.19;;;9.03;nan
7105;BME280;3594;42.152;24.714;2022-12-18T02:14:49;-24066.91;;;8.95;nan
7105;BME280;3594;42.152;24.714;2022-12-18T02:17:07;-24058.44;;;8.64;nan
7105;BME280;3594;42.152;24.714;2022-12-18T02:27:27;-24063.81;;;8.83;nan
7105;BME280;3594;42.152;24.714;2022-12-18T02:29:55;-24064.50;;;8.86;nan
7105;BME280;3594;42.152;24.714;2022-12-18T02:32:27;-24061.41;;;8.75;nan
7105;BME280;3594;42.152;24.714;2022-12-18T02:34:56;-24064.94;;;8.88;nan
7105;BME280;3594;42.152;24.714;2022-12-18T02:37:24;-24063.38;;;8.82;nan
7105;BME280;3594;42.152;24.714;2022-12-18T02:39:53;-24068.75;;;9.01;nan
7105;BME280;3594;42.152;24.714;2022-12-18T02:42:21;-24064.78;;;8.87;nan
7105;BME280;3594;42.152;24.714;2022-12-18T02:44:49;-24072.56;;;9.15;nan
7105;BME280;3594;42.152;24.714;2022-12-18T02:47:17;-24074.00;;;9.20;nan
7105;BME280;3594;42.152;24.714;2022-12-18T02:49:53;-24072.84;;;9.16;nan
7105;BME280;3594;42.152;24.714;2022-12-18T02:58:04;-24071.31;;;9.10;nan
7105;BME280;3594;42.152;24.714;2022-12-18T03:00:58;-24073.13;;;9.17;nan
7105;BME280;3594;42.152;24.714;2022-12-18T03:03:30;-24074.13;;;9.20;nan
7105;BME280;3594;42.152;24.714;2022-12-18T03:06:07;-24076.66;;;9.29;nan
7105;BME280;3594;42.152;24.714;2022-12-18T03:08:39;-24079.22;;;9.39;nan
7105;BME280;3594;42.152;24.714;2022-12-18T03:11:09;-24074.00;;;9.20;nan
7105;BME280;3594;42.152;24.714;2022-12-18T03:16:10;-24073.84;;;9.19;nan
7105;BME280;3594;42.152;24.714;2022-12-18T03:18:41;-24070.59;;;9.08;nan
7105;BME280;3594;42.152;24.714;2022-12-18T03:21:09;-24072.16;;;9.13;nan
7105;BME280;3594;42.152;24.714;2022-12-18T03:23:41;-24075.13;;;9.24;nan
7105;BME280;3594;42.152;24.714;2022-12-18T03:26:14;-24074.84;;;9.23;nan
7105;BME280;3594;42.152;24.714;2022-12-18T03:28:45;-24071.59;;;9.11;nan
7105;BME280;3594;42.152;24.714;2022-12-18T03:31:14;-24071.72;;;9.12;nan
7105;BME280;3594;42.152;24.714;2022-12-18T03:33:47;-24079.34;;;9.39;nan
7105;BME280;3594;42.152;24.714;2022-12-18T03:36:16;-24071.59;;;9.11;nan
7105;BME280;3594;42.152;24.714;2022-12-18T03:38:41;-24078.94;;;9.38;nan
7105;BME280;3594;42.152;24.714;2022-12-18T03:41:18;-24080.34;;;9.43;nan
7105;BME280;3594;42.152;24.714;2022-12-18T03:46:52;-24086.00;;;9.63;nan
7105;BME280;3594;42.152;24.714;2022-12-18T03:49:34;-24083.03;;;9.52;nan
7105;BME280;3594;42.152;24.714;2022-12-18T03:52:11;-24086.84;;;9.66;nan
7105;BME280;3594;42.152;24.714;2022-12-18T03:54:41;-24078.78;;;9.37;nan
7105;BME280;3594;42.152;24.714;2022-12-18T03:57:14;-24082.47;;;9.50;nan
7105;BME280;3594;42.152;24.714;2022-12-18T03:59:43;-24079.34;;;9.39;nan
7105;BME280;3594;42.152;24.714;2022-12-18T04:02:09;-24086.13;;;9.63;nan
7105;BME280;3594;42.152;24.714;2022-12-18T04:04:39;-24059.28;;;8.67;nan
7105;BME280;3594;42.152;24.714;2022-12-18T04:07:05;-24084.44;;;9.57;nan
7105;BME280;3594;42.152;24.714;2022-12-18T04:09:32;-24081.06;;;9.45;nan
7105;BME280;3594;42.152;24.714;2022-12-18T04:11:59;-24080.50;;;9.43;nan
7105;BME280;3594;42.152;24.714;2022-12-18T04:14:24;-24081.91;;;9.48;nan
7105;BME280;3594;42.152;24.714;2022-12-18T04:16:50;-24082.75;;;9.51;nan
7105;BME280;3594;42.152;24.714;2022-12-18T04:19:15;-24077.66;;;9.33;nan
7105;BME280;3594;42.152;24.714;2022-12-18T04:21:41;-24079.63;;;9.40;nan
7105;BME280;3594;42.152;24.714;2022-12-18T04:24:06;-24083.03;;;9.52;nan
7105;BME280;3594;42.152;24.714;2022-12-18T04:26:32;-24077.81;;;9.34;nan
7105;BME280;3594;42.152;24.714;2022-12-18T04:28:57;-24074.00;;;9.20;nan
7105;BME280;3594;42.152;24.714;2022-12-18T04:31:23;-24078.22;;;9.35;nan
7105;BME280;3594;42.152;24.714;2022-12-18T04:33:48;-24073.00;;;9.16;nan
7105;BME280;3594;42.152;24.714;2022-12-18T04:36:14;-24077.81;;;9.34;nan
7105;BME280;3594;42.152;24.714;2022-12-18T04:38:39;-24075.41;;;9.25;nan
7105;BME280;3594;42.152;24.714;2022-12-18T04:41:05;-24073.41;;;9.18;nan
7105;BME280;3594;42.152;24.714;2022-12-18T04:43:30;-24065.78;;;8.91;nan
7105;BME280;3594;42.152;24.714;2022-12-18T04:46:04;-24072.56;;;9.15;nan
7105;BME280;3594;42.152;24.714;2022-12-18T04:48:30;-24063.53;;;8.82;nan
7105;BME280;3594;42.152;24.714;2022-12-18T04:50:56;-24069.47;;;9.04;nan
7105;BME280;3594;42.152;24.714;2022-12-18T04:53:21;-24066.06;;;8.92;nan
7105;BME280;3594;42.152;24.714;2022-12-18T04:55:47;-24068.63;;;9.01;nan
7105;BME280;3594;42.152;24.714;2022-12-18T04:58:12;-24060.56;;;8.72;nan
7105;BME280;3594;42.152;24.714;2022-12-18T05:00:38;-24062.25;;;8.78;nan
7105;BME280;3594;42.152;24.714;2022-12-18T05:03:03;-24064.66;;;8.86;nan
7105;BME280;3594;42.152;24.714;2022-12-18T05:05:29;-24063.25;;;8.81;nan
7105;BME280;3594;42.152;24.714;2022-12-18T05:07:54;-24063.53;;;8.82;nan
7105;BME280;3594;42.152;24.714;2022-12-18T05:10:19;-24061.97;;;8.77;nan
7105;BME280;3594;42.152;24.714;2022-12-18T05:12:45;-24056.59;;;8.58;nan
7105;BME280;3594;42.152;24.714;2022-12-18T05:15:30;-24063.38;;;8.82;nan
7105;BME280;3594;42.152;24.714;2022-12-18T05:17:57;-24063.25;;;8.81;nan
7105;BME280;3594;42.152;24.714;2022-12-18T05:20:23;-24057.00;;;8.59;nan
7105;BME280;3594;42.152;24.714;2022-12-18T05:22:49;-24067.19;;;8.96;nan
7105;BME280;3594;42.152;24.714;2022-12-18T05:25:14;-24063.81;;;8.83;nan
7105;BME280;3594;42.152;24.714;2022-12-18T05:27:40;-24066.22;;;8.92;nan
7105;BME280;3594;42.152;24.714;2022-12-18T05:30:06;-24068.03;;;8.99;nan
7105;BME280;3594;42.152;24.714;2022-12-18T05:32:32;-24066.06;;;8.92;nan
7105;BME280;3594;42.152;24.714;2022-12-18T05:34:57;-24063.81;;;8.83;nan
7105;BME280;3594;42.152;24.714;2022-12-18T05:37:23;-24063.94;;;8.84;nan
7105;BME280;3594;42.152;24.714;2022-12-18T05:39:48;-24060.97;;;8.73;nan
7105;BME280;3594;42.152;24.714;2022-12-18T05:42:14;-24066.06;;;8.92;nan
7105;BME280;3594;42.152;24.714;2022-12-18T05:44:39;-24067.47;;;8.97;nan
7105;BME280;3594;42.152;24.714;2022-12-18T05:47:04;-24069.31;;;9.03;nan
7105;BME280;3594;42.152;24.714;2022-12-18T05:49:30;-24067.91;;;8.98;nan
7105;BME280;3594;42.152;24.714;2022-12-18T05:51:55;-24067.75;;;8.98;nan
7105;BME280;3594;42.152;24.714;2022-12-18T05:54:22;-24060.56;;;8.72;nan
7105;BME280;3594;42.152;24.714;2022-12-18T05:56:47;-24068.63;;;9.01;nan
7105;BME280;3594;42.152;24.714;2022-12-18T05:59:13;-24063.81;;;8.83;nan
7105;BME280;3594;42.152;24.714;2022-12-18T06:01:38;-24068.34;;;9.00;nan
7105;BME280;3594;42.152;24.714;2022-12-18T06:04:04;-24070.16;;;9.06;nan
7105;BME280;3594;42.152;24.714;2022-12-18T06:06:29;-24071.16;;;9.10;nan
7105;BME280;3594;42.152;24.714;2022-12-18T06:08:56;-24070.16;;;9.06;nan
7105;BME280;3594;42.152;24.714;2022-12-18T06:11:25;-24069.88;;;9.05;nan
7105;BME280;3594;42.152;24.714;2022-12-18T06:13:52;-24074.00;;;9.20;nan
7105;BME280;3594;42.152;24.714;2022-12-18T06:16:18;-24074.56;;;9.22;nan
7105;BME280;3594;42.152;24.714;2022-12-18T06:18:44;-24073.28;;;9.17;nan
7105;BME280;3594;42.152;24.714;2022-12-18T06:21:09;-24068.91;;;9.02;nan
7105;BME280;3594;42.152;24.714;2022-12-18T06:23:35;-24072.84;;;9.16;nan
7105;BME280;3594;42.152;24.714;2022-12-18T06:26:08;-24071.16;;;9.10;nan
7105;BME280;3594;42.152;24.714;2022-12-18T06:28:34;-24074.13;;;9.20;nan
7105;BME280;3594;42.152;24.714;2022-12-18T06:31:00;-24081.19;;;9.46;nan
7105;BME280;3594;42.152;24.714;2022-12-18T06:33:27;-24079.50;;;9.40;nan
7105;BME280;3594;42.152;24.714;2022-12-18T06:35:54;-24076.53;;;9.29;nan
7105;BME280;3594;42.152;24.714;2022-12-18T06:38:19;-24069.59;;;9.04;nan
7105;BME280;3594;42.152;24.714;2022-12-18T06:40:45;-24076.53;;;9.29;nan
7105;BME280;3594;42.152;24.714;2022-12-18T06:43:10;-24082.47;;;9.50;nan
7105;BME280;3594;42.152;24.714;2022-12-18T06:45:36;-24078.22;;;9.35;nan
7105;BME280;3594;42.152;24.714;2022-12-18T06:48:01;-24080.22;;;9.42;nan
7105;BME280;3594;42.152;24.714;2022-12-18T06:50:27;-24077.94;;;9.34;nan
7105;BME280;3594;42.152;24.714;2022-12-18T06:52:52;-24084.31;;;9.57;nan
7105;BME280;3594;42.152;24.714;2022-12-18T06:55:18;-24081.75;;;9.48;nan
7105;BME280;3594;42.152;24.714;2022-12-18T06:57:43;-24076.09;;;9.27;nan
7105;BME280;3594;42.152;24.714;2022-12-18T07:00:09;-24083.47;;;9.54;nan
7105;BME280;3594;42.152;24.714;2022-12-18T07:02:35;-24085.00;;;9.59;nan
7105;BME280;3594;42.152;24.714;2022-12-18T07:05:00;-24082.91;;;9.52;nan
7105;BME280;3594;42.152;24.714;2022-12-18T07:07:26;-24080.50;;;9.43;nan
7105;BME280;3594;42.152;24.714;2022-12-18T07:09:51;-24083.16;;;9.53;nan
7105;BME280;3594;42.152;24.714;2022-12-18T07:12:18;-24073.56;;;9.18;nan
7105;BME280;3594;42.152;24.714;2022-12-18T07:14:43;-24083.31;;;9.53;nan
7105;BME280;3594;42.152;24.714;2022-12-18T07:17:09;-24077.81;;;9.34;nan
7105;BME280;3594;42.152;24.714;2022-12-18T07:19:34;-24083.59;;;9.54;nan
7105;BME280;3594;42.152;24.714;2022-12-18T07:22:00;-24076.53;;;9.29;nan
7105;BME280;3594;42.152;24.714;2022-12-18T07:24:26;-24080.91;;;9.45;nan
7105;BME280;3594;42.152;24.714;2022-12-18T07:26:51;-24081.75;;;9.48;nan
7105;BME280;3594;42.152;24.714;2022-12-18T07:29:17;-24083.47;;;9.54;nan
7105;BME280;3594;42.152;24.714;2022-12-18T07:31:43;-24082.47;;;9.50;nan
7105;BME280;3594;42.152;24.714;2022-12-18T07:34:13;-24080.34;;;9.43;nan
7105;BME280;3594;42.152;24.714;2022-12-18T07:36:40;-24082.75;;;9.51;nan
7105;BME280;3594;42.152;24.714;2022-12-18T07:39:06;-24082.75;;;9.51;nan
7105;BME280;3594;42.152;24.714;2022-12-18T07:41:32;-24081.47;;;9.47;nan
7105;BME280;3594;42.152;24.714;2022-12-18T07:43:58;-24079.91;;;9.41;nan
7105;BME280;3594;42.152;24.714;2022-12-18T07:46:23;-24077.38;;;9.32;nan
7105;BME280;3594;42.152;24.714;2022-12-18T07:48:48;-24078.78;;;9.37;nan
7105;BME280;3594;42.152;24.714;2022-12-18T07:51:14;-24077.09;;;9.31;nan
7105;BME280;3594;42.152;24.714;2022-12-18T07:53:40;-24075.69;;;9.26;nan
7105;BME280;3594;42.152;24.714;2022-12-18T07:56:08;-24085.56;;;9.61;nan
7105;BME280;3594;42.152;24.714;2022-12-18T07:58:34;-24087.97;;;9.70;nan
7105;BME280;3594;42.152;24.714;2022-12-18T08:01:08;-24087.41;;;9.68;nan
7105;BME280;3594;42.152;24.714;2022-12-18T08:03:34;-24083.03;;;9.52;nan
7105;BME280;3594;42.152;24.714;2022-12-18T08:06:04;-24086.44;;;9.64;nan
7105;BME280;3594;42.152;24.714;2022-12-18T08:08:31;-24089.81;;;9.76;nan
7105;BME280;3594;42.152;24.714;2022-12-18T08:10:57;-24089.09;;;9.74;nan
7105;BME280;3594;42.152;24.714;2022-12-18T08:13:23;-24081.91;;;9.48;nan
7105;BME280;3594;42.152;24.714;2022-12-18T08:15:59;-24086.97;;;9.66;nan
7105;BME280;3594;42.152;24.714;2022-12-18T08:18:24;-24086.28;;;9.64;nan
7105;BME280;3594;42.152;24.714;2022-12-18T08:20:50;-24092.78;;;9.87;nan
7105;BME280;3594;42.152;24.714;2022-12-18T08:23:16;-24095.19;;;9.96;nan
7105;BME280;3594;42.152;24.714;2022-12-18T08:25:41;-24091.78;;;9.84;nan
7105;BME280;3594;42.152;24.714;2022-12-18T08:28:07;-24085.44;;;9.61;nan
7105;BME280;3594;42.152;24.714;2022-12-18T08:30:32;-24092.50;;;9.86;nan
7105;BME280;3594;42.152;24.714;2022-12-18T08:32:57;-24095.88;;;9.98;nan
7105;BME280;3594;42.152;24.714;2022-12-18T08:35:23;-24098.00;;;10.06;nan
7105;BME280;3594;42.152;24.714;2022-12-18T08:37:48;-24097.16;;;10.03;nan
7105;BME280;3594;42.152;24.714;2022-12-18T08:40:14;-24099.97;;;10.13;nan
7105;BME280;3594;42.152;24.714;2022-12-18T08:42:40;-24101.13;;;10.17;nan
7105;BME280;3594;42.152;24.714;2022-12-18T08:45:24;-24097.72;;;10.05;nan
7105;BME280;3594;42.152;24.714;2022-12-18T08:47:50;-24094.75;;;9.94;nan
7105;BME280;3594;42.152;24.714;2022-12-18T08:50:15;-24091.09;;;9.81;nan
7105;BME280;3594;42.152;24.714;2022-12-18T08:52:41;-24100.25;;;10.14;nan
7105;BME280;3594;42.152;24.714;2022-12-18T08:55:07;-24103.09;;;10.24;nan
7105;BME280;3594;42.152;24.714;2022-12-18T08:57:33;-24102.53;;;10.22;nan
7105;BME280;3594;42.152;24.714;2022-12-18T08:59:58;-24099.41;;;10.11;nan
7105;BME280;3594;42.152;24.714;2022-12-18T09:02:24;-24104.06;;;10.28;nan
7105;BME280;3594;42.152;24.714;2022-12-18T09:04:50;-24095.47;;;9.97;nan
7105;BME280;3594;42.152;24.714;2022-12-18T09:07:15;-24101.81;;;10.19;nan
7105;BME280;3594;42.152;24.714;2022-12-18T09:09:40;-24106.34;;;10.36;nan
7105;BME280;3594;42.152;24.714;2022-12-18T09:12:06;-24103.09;;;10.24;nan
7105;BME280;3594;42.152;24.714;2022-12-18T09:14:31;-24115.78;;;10.70;nan
7105;BME280;3594;42.152;24.714;2022-12-18T09:16:57;-24116.78;;;10.73;nan
7105;BME280;3594;42.152;24.714;2022-12-18T09:21:47;-24117.91;;;10.77;nan
7105;BME280;3594;42.152;24.714;2022-12-18T09:24:14;-24116.22;;;10.71;nan
7105;BME280;3594;42.152;24.714;2022-12-18T09:26:39;-24109.88;;;10.48;nan
7105;BME280;3594;42.152;24.714;2022-12-18T09:29:05;-24105.22;;;10.32;nan
7105;BME280;3594;42.152;24.714;2022-12-18T09:31:32;-24112.13;;;10.56;nan
7105;BME280;3594;42.152;24.714;2022-12-18T09:33:58;-24104.66;;;10.30;nan
7105;BME280;3594;42.152;24.714;2022-12-18T09:36:23;-24105.06;;;10.31;nan
7105;BME280;3594;42.152;24.714;2022-12-18T09:38:49;-24110.56;;;10.51;nan
7105;BME280;3594;42.152;24.714;2022-12-18T09:44:03;-24114.66;;;10.66;nan
7105;BME280;3594;42.152;24.714;2022-12-18T09:46:38;-24112.13;;;10.56;nan
7105;BME280;3594;42.152;24.714;2022-12-18T09:49:11;-24099.28;;;10.10;nan
7105;BME280;3594;42.152;24.714;2022-12-18T09:51:42;-24104.66;;;10.30;nan
7105;BME280;3594;42.152;24.714;2022-12-18T09:54:15;-24111.97;;;10.56;nan
7105;BME280;3594;42.152;24.714;2022-12-18T09:56:43;-24109.59;;;10.47;nan
7105;BME280;3594;42.152;24.714;2022-12-18T09:59:23;-24107.88;;;10.41;nan
7105;BME280;3594;42.152;24.714;2022-12-18T10:01:49;-24079.34;;;9.39;nan
7105;BME280;3594;42.152;24.714;2022-12-18T10:04:14;-24101.41;;;10.18;nan
7105;BME280;3594;42.152;24.714;2022-12-18T10:07:07;-24108.59;;;10.44;nan
7105;BME280;3594;42.152;24.714;2022-12-18T10:20:16;-24108.47;;;10.43;nan
7105;BME280;3594;42.152;24.714;2022-12-18T10:28:22;-24113.25;;;10.60;nan
7105;BME280;3594;42.152;24.714;2022-12-18T10:30:48;-24112.13;;;10.56;nan
7105;BME280;3594;42.152;24.714;2022-12-18T10:33:23;-24102.09;;;10.21;nan
7105;BME280;3594;42.152;24.714;2022-12-18T10:35:52;-24110.72;;;10.51;nan
7105;BME280;3594;42.152;24.714;2022-12-18T10:41:04;-24111.00;;;10.52;nan
7105;BME280;3594;42.152;24.714;2022-12-18T10:43:32;-24108.47;;;10.43;nan
7105;BME280;3594;42.152;24.714;2022-12-18T10:46:12;-24108.59;;;10.44;nan
7105;BME280;3594;42.152;24.714;2022-12-18T10:48:52;-24107.63;;;10.40;nan
7105;BME280;3594;42.152;24.714;2022-12-18T10:51:28;-24108.88;;;10.45;nan
7105;BME280;3594;42.152;24.714;2022-12-18T10:54:03;-24107.31;;;10.39;nan
7105;BME280;3594;42.152;24.714;2022-12-18T10:56:31;-24100.13;;;10.13;nan
7105;BME280;3594;42.152;24.714;2022-12-18T11:01:25;-24103.78;;;10.27;nan
7105;BME280;3594;42.152;24.714;2022-12-18T11:06:24;-24096.44;;;10.00;nan
7105;BME280;3594;42.152;24.714;2022-12-18T11:09:00;-24096.59;;;10.01;nan
7105;BME280;3594;42.152;24.714;2022-12-18T11:11:26;-24087.97;;;9.70;nan
7105;BME280;3594;42.152;24.714;2022-12-18T11:14:06;-24087.13;;;9.67;nan
7105;BME280;3594;42.152;24.714;2022-12-18T11:16:44;-24076.09;;;9.27;nan
7105;BME280;3594;42.152;24.714;2022-12-18T11:21:52;-24077.09;;;9.31;nan
7105;BME280;3594;42.152;24.714;2022-12-18T11:24:30;-24067.06;;;8.95;nan
7105;BME280;3594;42.152;24.714;2022-12-18T11:27:02;-24071.59;;;9.11;nan
7105;BME280;3594;42.152;24.714;2022-12-18T11:34:46;-24056.03;;;8.56;nan
7105;BME280;3594;42.152;24.714;2022-12-18T11:37:15;-24060.25;;;8.71;nan
7105;BME280;3594;42.152;24.714;2022-12-18T11:39:54;-24052.91;;;8.45;nan
7105;BME280;3594;42.152;24.714;2022-12-18T11:42:48;-24061.97;;;8.77;nan
7105;BME280;3594;42.152;24.714;2022-12-18T11:45:39;-24057.88;;;8.62;nan
7105;BME280;3594;42.152;24.714;2022-12-18T11:48:34;-24069.19;;;9.03;nan
7105;BME280;3594;42.152;24.714;2022-12-18T11:51:00;-24056.59;;;8.58;nan
7105;BME280;3594;42.152;24.714;2022-12-18T11:53:29;-24054.03;;;8.49;nan
7105;BME280;3594;42.152;24.714;2022-12-18T12:02:13;-24063.94;;;8.84;nan
7105;BME280;3594;42.152;24.714;2022-12-18T12:13:03;-24069.88;;;9.05;nan
7105;BME280;3594;42.152;24.714;2022-12-18T12:38:05;-24070.88;;;9.09;nan
7105;BME280;3594;42.152;24.714;2022-12-18T12:40:39;-24053.91;;;8.48;nan
7105;BME280;3594;42.152;24.714;2022-12-18T12:46:05;-24071.59;;;9.11;nan
7105;BME280;3594;42.152;24.714;2022-12-18T12:48:46;-24074.69;;;9.22;nan
7105;BME280;3594;42.152;24.714;2022-12-18T12:51:20;-24073.41;;;9.18;nan
7105;BME280;3594;42.152;24.714;2022-12-18T12:53:47;-24059.69;;;8.69;nan
7105;BME280;3594;42.152;24.714;2022-12-18T12:56:16;-24077.38;;;9.32;nan
7105;BME280;3594;42.152;24.714;2022-12-18T13:03:58;-24071.72;;;9.12;nan
7105;BME280;3594;42.152;24.714;2022-12-18T13:06:57;-24073.72;;;9.19;nan
7105;BME280;3594;42.152;24.714;2022-12-18T13:09:24;-24066.63;;;8.94;nan
7105;BME280;3594;42.152;24.714;2022-12-18T13:11:49;-24079.34;;;9.39;nan
7105;BME280;3594;42.152;24.714;2022-12-18T13:14:36;-24070.16;;;9.06;nan
7105;BME280;3594;42.152;24.714;2022-12-18T13:17:16;-24077.25;;;9.31;nan
7105;BME280;3594;42.152;24.714;2022-12-18T13:19:42;-24077.25;;;9.31;nan
7105;BME280;3594;42.152;24.714;2022-12-18T13:22:22;-24071.03;;;9.09;nan
7105;BME280;3594;42.152;24.714;2022-12-18T13:24:49;-24077.66;;;9.33;nan
7105;BME280;3594;42.152;24.714;2022-12-18T13:41:21;-24076.09;;;9.27;nan
7105;BME280;3594;42.152;24.714;2022-12-18T13:43:49;-24078.78;;;9.37;nan
7105;BME280;3594;42.152;24.714;2022-12-18T13:46:43;-24079.78;;;9.41;nan
7105;BME280;3594;42.152;24.714;2022-12-18T13:51:57;-24063.25;;;8.81;nan
7105;BME280;3594;42.152;24.714;2022-12-18T13:54:43;-24076.25;;;9.28;nan
7105;BME280;3594;42.152;24.714;2022-12-18T13:57:36;-24070.31;;;9.07;nan
7105;BME280;3594;42.152;24.714;2022-12-18T14:00:25;-24079.63;;;9.40;nan
7105;BME280;3594;42.152;24.714;2022-12-18T14:02:51;-24068.75;;;9.01;nan
7105;BME280;3594;42.152;24.714;2022-12-18T14:07:48;-24075.81;;;9.26;nan
7105;BME280;3594;42.152;24.714;2022-12-18T14:10:15;-24077.38;;;9.32;nan
7105;BME280;3594;42.152;24.714;2022-12-18T14:12:45;-24072.16;;;9.13;nan
7105;BME280;3594;42.152;24.714;2022-12-18T14:18:03;-24068.34;;;9.00;nan
7105;BME280;3594;42.152;24.714;2022-12-18T14:20:41;-24070.72;;;9.08;nan
7105;BME280;3594;42.152;24.714;2022-12-18T14:23:41;-24062.38;;;8.78;nan
7105;BME280;3594;42.152;24.714;2022-12-18T14:26:39;-24072.84;;;9.16;nan
7105;BME280;3594;42.152;24.714;2022-12-18T14:29:34;-24070.88;;;9.09;nan
7105;BME280;3594;42.152;24.714;2022-12-18T14:32:17;-24070.16;;;9.06;nan
7105;BME280;3594;42.152;24.714;2022-12-18T14:34:48;-24065.22;;;8.88;nan
7105;BME280;3594;42.152;24.714;2022-12-18T14:37:23;-24060.97;;;8.73;nan
7105;BME280;3594;42.152;24.714;2022-12-18T14:39:59;-24068.03;;;8.99;nan
7105;BME280;3594;42.152;24.714;2022-12-18T14:42:26;-24060.25;;;8.71;nan
7105;BME280;3594;42.152;24.714;2022-12-18T14:45:45;-24067.19;;;8.96;nan
7105;BME280;3594;42.152;24.714;2022-12-18T14:50:38;-24054.47;;;8.50;nan
7105;BME280;3594;42.152;24.714;2022-12-18T14:53:03;-24062.38;;;8.78;nan
7105;BME280;3594;42.152;24.714;2022-12-18T14:55:32;-24057.88;;;8.62;nan
7105;BME280;3594;42.152;24.714;2022-12-18T14:57:57;-24066.34;;;8.93;nan
7105;BME280;3594;42.152;24.714;2022-12-18T15:00:24;-24051.50;;;8.39;nan
7105;BME280;3594;42.152;24.714;2022-12-18T15:02:54;-24067.34;;;8.96;nan
7105;BME280;3594;42.152;24.714;2022-12-18T15:05:30;-24065.06;;;8.88;nan
7105;BME280;3594;42.152;24.714;2022-12-18T15:07:58;-24066.78;;;8.94;nan
7105;BME280;3594;42.152;24.714;2022-12-18T15:10:28;-24064.66;;;8.86;nan
7105;BME280;3594;42.152;24.714;2022-12-18T15:18:04;-24062.09;;;8.77;nan
7105;BME280;3594;42.152;24.714;2022-12-18T15:26:02;-24047.66;;;8.26;nan
7105;BME280;3594;42.152;24.714;2022-12-18T15:28:37;-24051.78;;;8.40;nan
7105;BME280;3594;42.152;24.714;2022-12-18T15:31:30;-24056.03;;;8.56;nan
7105;BME280;3594;42.152;24.714;2022-12-18T15:36:23;-24060.41;;;8.71;nan
7105;BME280;3594;42.152;24.714;2022-12-18T15:38:50;-24054.03;;;8.49;nan
7105;BME280;3594;42.152;24.714;2022-12-18T15:41:18;-23923.25;;;3.83;nan
7105;BME280;3594;42.152;24.714;2022-12-18T15:43:44;-24062.94;;;8.80;nan
7105;BME280;3594;42.152;24.714;2022-12-18T15:46:15;-24053.63;;;8.47;nan
7105;BME280;3594;42.152;24.714;2022-12-18T15:48:51;-24063.25;;;8.81;nan
7105;BME280;3594;42.152;24.714;2022-12-18T15:51:28;-24065.06;;;8.88;nan
7105;BME280;3594;42.152;24.714;2022-12-18T15:53:58;-24058.28;;;8.64;nan
7105;BME280;3594;42.152;24.714;2022-12-18T15:56:24;-24063.66;;;8.83;nan
7105;BME280;3594;42.152;24.714;2022-12-18T15:59:14;-24051.78;;;8.40;nan
7105;BME280;3594;42.152;24.714;2022-12-18T16:01:40;-24049.66;;;8.33;nan
7105;BME280;3594;42.152;24.714;2022-12-18T16:04:06;-24052.47;;;8.43;nan
7105;BME280;3594;42.152;24.714;2022-12-18T16:06:32;-24059.69;;;8.69;nan
7105;BME280;3594;42.152;24.714;2022-12-18T16:08:57;-24060.97;;;8.73;nan
7105;BME280;3594;42.152;24.714;2022-12-18T16:11:28;-24054.59;;;8.51;nan
7105;BME280;3594;42.152;24.714;2022-12-18T16:16:41;-24060.97;;;8.73;nan